Trenton, Nebraska
Current Conditions -  °F | °C
As of 6:53 PM on Saturday 22 Nov 2014 (Local Time) from KMCK Reporting Station
Clear Clear  
Wind Chill: 50°   Ceiling: Unl
Heat Index: 50°   Visibility: 10mi
Dew Point: 17°   Wind: 7mph
Humidity: 27%   Direction: 160°SSE
Pressure: 29.51"   Gusts: NA
Location:  40.18°N, 101.01°W
Report Text: KMCK 230053Z AUTO 16006KT 10SM CLR 10/M08 A2951 RMK AO2 SLP005 T01001083
Loading
Personal Weather Stations






























Interactive Weather Map New forecast layout! Learn more

10-Day Weather Forecast

Advertisements
Track Severe Weather on mobile